createdAt,value
2022-11-29T00:00:27.317Z,37.47
2022-11-29T00:02:58.552Z,37.27
2022-11-29T00:08:21.580Z,39.70
2022-11-29T00:10:52.971Z,38.60
2022-11-29T00:13:31.434Z,36.37
2022-11-29T00:16:10.797Z,38.07
2022-11-29T00:21:22.531Z,34.27
2022-11-29T00:23:53.726Z,36.77
2022-11-29T00:26:23.586Z,36.87
2022-11-29T00:28:53.592Z,34.57
2022-11-29T00:31:31.216Z,35.77
2022-11-29T00:34:02.308Z,35.73
2022-11-29T00:36:34.694Z,35.53
2022-11-29T00:39:03.242Z,35.53
2022-11-29T00:41:35.154Z,37.43
2022-11-29T00:44:09.191Z,36.97
2022-11-29T00:49:27.582Z,39.80
2022-11-29T00:51:57.592Z,38.30
2022-11-29T00:54:28.285Z,36.70
2022-11-29T00:57:05.674Z,34.80
2022-11-29T01:02:18.298Z,34.23
2022-11-29T01:04:52.472Z,37.20
2022-11-29T01:07:24.793Z,36.10
2022-11-29T01:09:57.527Z,38.30
2022-11-29T01:12:38.039Z,38.73
2022-11-29T01:15:10.086Z,35.80
2022-11-29T01:17:48.349Z,35.63
2022-11-29T01:20:16.934Z,37.10
2022-11-29T01:25:31.943Z,34.37
2022-11-29T01:28:02.051Z,34.50
2022-11-29T01:30:42.791Z,34.90
2022-11-29T01:33:14.094Z,34.30
2022-11-29T01:35:56.206Z,34.10
2022-11-29T01:38:30.043Z,34.33
2022-11-29T01:41:10.251Z,34.07
2022-11-29T01:44:14.868Z,36.57
2022-11-29T01:46:50.179Z,33.63
2022-11-29T01:49:36.609Z,35.40
2022-11-29T01:52:25.055Z,35.03
2022-11-29T01:55:03.024Z,34.90
2022-11-29T01:57:41.607Z,33.03
2022-11-29T02:00:18.464Z,33.67
2022-11-29T02:03:07.815Z,33.30
2022-11-29T02:05:46.232Z,31.80
2022-11-29T02:08:44.344Z,32.37
2022-11-29T02:12:01.057Z,30.83
2022-11-29T02:14:50.663Z,34.70
2022-11-29T02:18:05.732Z,31.87
2022-11-29T02:21:09.826Z,31.63
2022-11-29T02:24:18.132Z,31.40
2022-11-29T02:30:16.402Z,30.93
2022-11-29T02:33:38.543Z,29.50
2022-11-29T02:36:34.186Z,32.90
2022-11-29T02:39:42.618Z,31.63
2022-11-29T02:45:55.579Z,33.37
2022-11-29T02:48:48.180Z,29.73
2022-11-29T02:51:48.101Z,30.90
2022-11-29T02:55:07.503Z,31.57
2022-11-29T02:57:59.647Z,31.23
2022-11-29T03:00:35.930Z,30.73
2022-11-29T03:03:17.331Z,31.87
2022-11-29T03:06:07.366Z,31.43
2022-11-29T03:08:49.128Z,28.77
2022-11-29T03:12:02.520Z,30.70
2022-11-29T03:15:07.382Z,29.83
2022-11-29T03:18:27.115Z,32.60
2022-11-29T03:21:34.523Z,33.40
2022-11-29T03:24:33.331Z,31.07
2022-11-29T03:27:13.999Z,31.47
2022-11-29T03:30:10.868Z,30.50
2022-11-29T03:33:22.141Z,34.20
2022-11-29T03:39:38.447Z,31.20
2022-11-29T03:42:21.969Z,32.50
2022-11-29T03:45:34.079Z,32.17
2022-11-29T03:48:30.130Z,33.20
2022-11-29T03:51:14.533Z,31.63
2022-11-29T03:54:07.863Z,33.17
2022-11-29T03:56:40.188Z,33.07
2022-11-29T03:59:18.874Z,30.23
2022-11-29T04:02:11.573Z,31.13
2022-11-29T04:05:21.443Z,31.77
2022-11-29T04:08:03.925Z,31.53
2022-11-29T04:11:19.781Z,31.97
2022-11-29T04:14:09.266Z,30.00
2022-11-29T04:17:16.069Z,32.20
2022-11-29T04:19:50.248Z,33.33
2022-11-29T04:22:56.699Z,31.70
2022-11-29T04:26:11.321Z,31.03
2022-11-29T04:29:05.879Z,32.97
2022-11-29T04:32:19.417Z,30.33
2022-11-29T04:35:22.137Z,29.40
2022-11-29T04:38:14.543Z,31.80
2022-11-29T04:41:23.356Z,29.57
2022-11-29T04:44:12.251Z,30.67
2022-11-29T04:47:06.658Z,29.10
2022-11-29T04:50:00.515Z,29.13
2022-11-29T04:52:58.318Z,30.93
2022-11-29T04:56:01.248Z,30.70
2022-11-29T04:59:02.510Z,30.37
2022-11-29T05:02:17.426Z,31.43
2022-11-29T05:05:12.202Z,32.87
2022-11-29T05:08:03.799Z,31.53
2022-11-29T05:14:20.722Z,31.50
2022-11-29T05:17:19.797Z,34.60
2022-11-29T05:20:43.178Z,33.13
2022-11-29T05:23:46.494Z,34.57
2022-11-29T05:27:12.619Z,34.60
2022-11-29T05:29:55.017Z,32.00
2022-11-29T05:33:00.684Z,33.23
2022-11-29T05:35:54.769Z,33.83
2022-11-29T05:38:56.675Z,35.17
2022-11-29T05:42:13.753Z,37.63
2022-11-29T05:45:14.245Z,39.83
2022-11-29T05:48:02.923Z,37.80
2022-11-29T05:50:57.959Z,39.67
2022-11-29T05:53:49.754Z,40.00
2022-11-29T05:57:02.150Z,37.93
2022-11-29T05:59:34.656Z,38.77
2022-11-29T06:02:29.715Z,38.57
2022-11-29T06:05:22.146Z,40.57
2022-11-29T06:11:30.320Z,41.37
2022-11-29T06:14:36.394Z,39.20
2022-11-29T06:17:47.215Z,42.90
2022-11-29T06:20:41.690Z,38.33
2022-11-29T06:23:57.949Z,40.97
2022-11-29T06:26:47.233Z,40.70
2022-11-29T06:29:54.796Z,40.43
2022-11-29T06:32:54.720Z,44.87
2022-11-29T06:36:07.024Z,40.27
2022-11-29T06:38:37.557Z,40.70
2022-11-29T06:41:14.872Z,42.17
2022-11-29T06:43:52.054Z,42.43
2022-11-29T06:46:49.681Z,40.77
2022-11-29T06:49:36.968Z,42.97
2022-11-29T06:52:35.403Z,41.20
2022-11-29T06:55:29.905Z,44.33
2022-11-29T06:58:40.184Z,38.73
2022-11-29T07:01:32.855Z,41.23
2022-11-29T07:04:45.934Z,40.83
2022-11-29T07:07:20.091Z,40.87
2022-11-29T07:09:55.980Z,38.00
2022-11-29T07:12:32.928Z,40.13
2022-11-29T07:15:15.728Z,42.47
2022-11-29T07:18:15.521Z,39.73
2022-11-29T07:21:09.309Z,42.03
2022-11-29T07:24:18.331Z,49.30
2022-11-29T07:27:09.203Z,40.33
2022-11-29T07:33:00.512Z,39.43
2022-11-29T07:36:04.807Z,42.30
2022-11-29T07:39:02.722Z,39.37
2022-11-29T07:41:58.489Z,38.87
2022-11-29T07:45:23.235Z,40.60
2022-11-29T07:47:55.433Z,39.03
2022-11-29T07:50:26.727Z,39.67
2022-11-29T07:52:58.736Z,39.03
2022-11-29T07:55:29.683Z,39.40
2022-11-29T07:58:07.417Z,36.90
2022-11-29T08:06:04.933Z,39.17
2022-11-29T08:08:37.859Z,39.10
2022-11-29T08:11:14.284Z,38.90
2022-11-29T08:13:44.135Z,39.07
2022-11-29T08:16:23.054Z,38.03
2022-11-29T08:18:54.683Z,35.20
2022-11-29T08:21:23.465Z,36.57
2022-11-29T08:23:54.302Z,40.07
2022-11-29T08:26:31.246Z,34.43
2022-11-29T08:31:56.042Z,36.77
2022-11-29T08:34:28.607Z,36.10
2022-11-29T08:37:00.064Z,34.23
2022-11-29T08:39:31.125Z,34.07
2022-11-29T08:42:01.536Z,34.40
2022-11-29T08:44:32.648Z,35.13
2022-11-29T08:47:22.921Z,36.00
2022-11-29T08:50:03.868Z,34.87
2022-11-29T08:52:57.592Z,34.77
2022-11-29T08:55:35.805Z,34.87
2022-11-29T08:58:12.569Z,35.33
2022-11-29T09:00:55.741Z,33.67
2022-11-29T09:03:47.715Z,34.33
2022-11-29T09:06:17.904Z,31.83
2022-11-29T09:08:48.836Z,29.93
2022-11-29T09:11:23.351Z,31.83
2022-11-29T09:13:53.697Z,35.63
2022-11-29T09:16:31.232Z,32.50
2022-11-29T09:19:00.651Z,35.17
2022-11-29T09:21:40.918Z,31.03
2022-11-29T09:24:11.134Z,32.90
2022-11-29T09:26:42.380Z,34.80
2022-11-29T09:29:13.430Z,31.77
2022-11-29T09:31:45.357Z,31.67
2022-11-29T09:34:19.958Z,31.00
2022-11-29T09:36:48.952Z,31.43
2022-11-29T09:39:29.993Z,32.30
2022-11-29T09:42:09.748Z,32.33
2022-11-29T09:45:37.013Z,31.47
2022-11-29T09:48:26.446Z,32.33
2022-11-29T09:54:44.749Z,29.30
2022-11-29T09:57:27.154Z,31.07
2022-11-29T10:00:03.806Z,33.00
2022-11-29T10:03:03.559Z,30.67
2022-11-29T10:05:57.049Z,29.40
2022-11-29T10:09:03.959Z,27.87
2022-11-29T10:12:19.523Z,26.03
2022-11-29T10:15:01.888Z,25.70
2022-11-29T10:17:34.594Z,26.73
2022-11-29T10:20:23.395Z,27.33
2022-11-29T10:23:19.835Z,26.93
2022-11-29T10:25:52.326Z,26.77
2022-11-29T10:28:36.943Z,24.70
2022-11-29T10:31:29.195Z,25.83
2022-11-29T10:34:06.419Z,27.17
2022-11-29T10:37:03.423Z,26.57
2022-11-29T10:39:57.507Z,26.77
2022-11-29T10:42:50.004Z,26.37
2022-11-29T10:45:32.410Z,29.40
2022-11-29T10:48:14.219Z,29.03
2022-11-29T10:50:51.223Z,26.23
2022-11-29T10:53:36.030Z,27.10
2022-11-29T10:56:32.786Z,28.60
2022-11-29T10:59:09.324Z,27.10
2022-11-29T11:01:44.171Z,26.00
2022-11-29T11:04:45.050Z,27.03
2022-11-29T11:07:38.019Z,28.20
2022-11-29T11:10:31.167Z,25.73
2022-11-29T11:13:22.932Z,25.40
2022-11-29T11:16:37.608Z,25.23
2022-11-29T11:19:31.642Z,27.30
2022-11-29T11:22:33.800Z,26.67
2022-11-29T11:25:29.845Z,25.30
2022-11-29T11:28:28.440Z,25.20
2022-11-29T11:31:04.994Z,25.90
2022-11-29T11:33:48.799Z,25.33
2022-11-29T11:36:47.299Z,26.33
2022-11-29T11:39:34.975Z,27.05
2022-11-29T11:42:27.304Z,26.33
2022-11-29T11:44:57.963Z,26.70
2022-11-29T11:47:29.689Z,25.60
2022-11-29T11:50:27.486Z,24.73
2022-11-29T11:53:22.497Z,26.30
2022-11-29T11:56:13.171Z,26.15
2022-11-29T11:58:52.431Z,22.33
2022-11-29T12:01:39.838Z,25.63
2022-11-29T12:04:29.281Z,25.07
2022-11-29T12:07:06.256Z,26.03
2022-11-29T12:09:53.701Z,25.03
2022-11-29T12:12:46.300Z,24.03
2022-11-29T12:15:32.996Z,25.37
2022-11-29T12:18:33.590Z,29.43
2022-11-29T12:21:33.551Z,25.70
2022-11-29T12:24:41.305Z,23.00
2022-11-29T12:27:19.154Z,24.10
2022-11-29T12:29:55.246Z,25.67
2022-11-29T12:33:01.655Z,27.03
2022-11-29T12:35:50.726Z,24.93
2022-11-29T12:38:51.869Z,24.63
2022-11-29T12:41:53.760Z,25.90
2022-11-29T12:44:47.837Z,23.27
2022-11-29T12:47:39.662Z,22.47
2022-11-29T12:50:26.820Z,23.03
2022-11-29T12:53:31.424Z,20.33
2022-11-29T12:56:47.699Z,20.20
2022-11-29T12:59:40.337Z,19.10
2022-11-29T13:02:44.826Z,21.30
2022-11-29T13:05:47.666Z,20.57
2022-11-29T13:08:38.977Z,25.10
2022-11-29T13:11:43.641Z,19.27
2022-11-29T13:14:50.400Z,17.47
2022-11-29T13:17:50.583Z,18.33
2022-11-29T13:21:21.117Z,18.80
2022-11-29T13:24:09.762Z,17.13
2022-11-29T13:26:41.065Z,14.67
2022-11-29T13:29:19.788Z,17.13
2022-11-29T13:31:54.621Z,14.50
2022-11-29T13:34:49.631Z,15.97
2022-11-29T13:37:32.982Z,19.43
2022-11-29T13:40:45.493Z,14.70
2022-11-29T13:46:47.714Z,20.20
2022-11-29T13:50:05.975Z,16.63
2022-11-29T13:53:05.144Z,18.93
2022-11-29T13:55:34.302Z,18.93
2022-11-29T13:58:32.995Z,21.60
2022-11-29T14:01:17.498Z,21.97
2022-11-29T14:04:15.468Z,20.40
2022-11-29T14:06:48.447Z,19.07
2022-11-29T14:09:38.177Z,18.77
2022-11-29T14:12:38.409Z,20.03
2022-11-29T14:15:25.617Z,20.03
2022-11-29T14:18:22.178Z,20.57
2022-11-29T14:21:02.057Z,18.50
2022-11-29T14:23:46.833Z,19.97
2022-11-29T14:26:39.924Z,19.03
2022-11-29T14:29:48.755Z,19.23
2022-11-29T14:32:39.287Z,16.43
2022-11-29T14:35:24.317Z,18.70
2022-11-29T14:38:51.217Z,18.27
2022-11-29T14:41:37.607Z,18.00
2022-11-29T14:44:16.877Z,17.80
2022-11-29T14:47:13.421Z,19.00
2022-11-29T14:49:45.446Z,18.60
2022-11-29T14:52:23.985Z,17.80
2022-11-29T14:55:13.309Z,19.00
2022-11-29T14:58:03.612Z,18.77
2022-11-29T15:00:56.833Z,20.93
2022-11-29T15:03:49.035Z,19.50
2022-11-29T15:06:44.082Z,20.63
2022-11-29T15:09:22.420Z,22.50
2022-11-29T15:11:52.855Z,20.77
2022-11-29T15:15:10.665Z,23.47
2022-11-29T15:17:58.258Z,27.50
2022-11-29T15:21:03.942Z,28.97
2022-11-29T15:23:46.171Z,29.17
2022-11-29T15:26:25.430Z,30.00
2022-11-29T15:29:12.514Z,28.33
2022-11-29T15:31:50.987Z,30.90
2022-11-29T15:34:39.035Z,29.47
2022-11-29T15:37:23.102Z,29.97
2022-11-29T15:43:34.628Z,31.63
2022-11-29T15:46:35.901Z,32.20
2022-11-29T15:49:40.856Z,32.20
2022-11-29T15:52:26.401Z,32.97
2022-11-29T15:55:03.788Z,30.10
2022-11-29T15:57:55.610Z,30.53
2022-11-29T16:00:28.774Z,32.03
2022-11-29T16:03:12.509Z,31.20
2022-11-29T16:05:54.333Z,28.20
2022-11-29T16:08:37.226Z,30.97
2022-11-29T16:11:16.163Z,30.00
2022-11-29T16:14:36.304Z,31.43
2022-11-29T16:17:13.911Z,30.90
2022-11-29T16:19:47.465Z,29.50
2022-11-29T16:22:34.778Z,30.57
2022-11-29T16:25:14.938Z,30.23
2022-11-29T16:27:56.624Z,32.23
2022-11-29T16:30:31.923Z,29.70
2022-11-29T16:33:15.660Z,30.77
2022-11-29T16:35:48.088Z,29.77
2022-11-29T16:38:27.048Z,30.17
2022-11-29T16:41:14.246Z,28.93
2022-11-29T16:43:59.543Z,31.03
2022-11-29T16:46:36.678Z,29.37
2022-11-29T16:49:38.807Z,30.03
2022-11-29T16:52:32.571Z,30.83
2022-11-29T16:55:02.556Z,32.83
2022-11-29T16:57:35.178Z,32.37
2022-11-29T17:00:36.495Z,30.97
2022-11-29T17:03:06.138Z,32.77
2022-11-29T17:05:39.012Z,32.87
2022-11-29T17:08:12.693Z,31.93
2022-11-29T17:10:40.681Z,35.40
2022-11-29T17:13:11.657Z,35.45
2022-11-29T17:15:41.411Z,35.43
2022-11-29T17:18:09.461Z,35.20
2022-11-29T17:20:37.147Z,32.10
2022-11-29T17:23:07.821Z,32.70
2022-11-29T17:25:35.948Z,34.20
2022-11-29T17:28:03.637Z,34.23
2022-11-29T17:30:34.598Z,34.23
2022-11-29T17:33:02.760Z,33.40
2022-11-29T17:35:30.558Z,34.63
2022-11-29T17:38:00.545Z,34.87
2022-11-29T17:40:30.985Z,35.37
2022-11-29T17:43:00.603Z,39.20
2022-11-29T17:45:28.484Z,39.50
2022-11-29T17:47:56.437Z,37.50
2022-11-29T17:50:26.017Z,39.77
2022-11-29T17:52:54.947Z,41.27
2022-11-29T17:55:28.251Z,39.90
2022-11-29T17:58:05.499Z,37.37
2022-11-29T18:00:33.514Z,41.57
2022-11-29T18:03:03.140Z,38.73
2022-11-29T18:05:34.760Z,37.07
2022-11-29T18:08:07.240Z,38.40
2022-11-29T18:10:40.639Z,37.53
2022-11-29T18:13:08.589Z,38.80
2022-11-29T18:15:36.301Z,39.00
2022-11-29T18:18:04.273Z,36.40
2022-11-29T18:20:33.286Z,40.80
2022-11-29T18:23:07.789Z,34.87
2022-11-29T18:25:39.239Z,37.80
2022-11-29T18:28:08.994Z,39.77
2022-11-29T18:30:37.062Z,37.97
2022-11-29T18:33:08.838Z,38.17
2022-11-29T18:35:37.262Z,38.03
2022-11-29T18:38:20.683Z,39.77
2022-11-29T18:40:53.220Z,38.00
2022-11-29T18:43:24.772Z,38.73
2022-11-29T18:45:53.026Z,39.83
2022-11-29T18:48:21.503Z,39.53
2022-11-29T18:50:51.689Z,39.43
2022-11-29T18:53:21.076Z,42.20
2022-11-29T18:56:00.794Z,39.00
2022-11-29T18:58:35.280Z,40.57
2022-11-29T19:01:18.437Z,39.40
2022-11-29T19:03:51.748Z,39.30
2022-11-29T19:06:27.402Z,43.73
2022-11-29T19:09:06.361Z,38.87
2022-11-29T19:11:36.627Z,39.27
2022-11-29T19:14:11.340Z,37.67
2022-11-29T19:16:42.687Z,43.40
2022-11-29T19:19:12.130Z,40.77
2022-11-29T19:21:42.025Z,39.23
2022-11-29T19:24:15.674Z,39.70
2022-11-29T19:26:46.060Z,40.00
2022-11-29T19:29:27.035Z,41.60
2022-11-29T19:32:04.370Z,41.67
2022-11-29T19:34:53.288Z,39.27
2022-11-29T19:37:32.360Z,42.07
2022-11-29T19:40:04.582Z,38.03
2022-11-29T19:42:36.974Z,43.13
2022-11-29T19:45:18.871Z,43.73
2022-11-29T19:47:55.164Z,44.23
2022-11-29T19:50:26.958Z,42.87
2022-11-29T19:53:00.547Z,43.03
2022-11-29T19:55:39.460Z,39.43
2022-11-29T19:58:19.853Z,42.50
2022-11-29T20:00:55.053Z,42.07
2022-11-29T20:03:32.053Z,42.93
2022-11-29T20:06:02.921Z,42.70
2022-11-29T20:08:41.551Z,41.50
2022-11-29T20:11:36.763Z,42.87
2022-11-29T20:14:08.894Z,42.87
2022-11-29T20:16:51.646Z,43.80
2022-11-29T20:19:24.223Z,43.00
2022-11-29T20:21:56.043Z,42.80
2022-11-29T20:24:45.514Z,47.03
2022-11-29T20:27:21.761Z,43.20
2022-11-29T20:29:52.032Z,48.20
2022-11-29T20:32:28.702Z,45.73
2022-11-29T20:35:03.906Z,51.07
2022-11-29T20:38:02.689Z,51.03
2022-11-29T20:41:02.501Z,49.00
2022-11-29T20:43:57.040Z,47.63
2022-11-29T20:46:32.202Z,47.77
2022-11-29T20:49:15.091Z,45.70
2022-11-29T20:52:05.857Z,48.80
2022-11-29T20:54:35.996Z,47.47
2022-11-29T20:57:07.033Z,44.30
2022-11-29T20:59:36.629Z,45.97
2022-11-29T21:02:13.531Z,46.07
2022-11-29T21:04:42.616Z,46.00
2022-11-29T21:07:15.447Z,46.83
2022-11-29T21:09:59.501Z,47.13
2022-11-29T21:12:34.313Z,49.00
2022-11-29T21:15:04.297Z,45.63
2022-11-29T21:17:37.149Z,46.83
2022-11-29T21:20:07.120Z,43.57
2022-11-29T21:23:12.718Z,47.90
2022-11-29T21:25:52.618Z,47.20
2022-11-29T21:28:39.858Z,47.00
2022-11-29T21:31:17.192Z,49.10
2022-11-29T21:33:48.510Z,49.93
2022-11-29T21:36:20.152Z,46.93
2022-11-29T21:39:05.391Z,46.10
2022-11-29T21:41:36.459Z,43.00
2022-11-29T21:44:07.056Z,46.07
2022-11-29T21:46:37.540Z,43.40
2022-11-29T21:49:07.380Z,45.87
2022-11-29T21:51:38.493Z,44.70
2022-11-29T21:54:07.398Z,45.30
2022-11-29T21:56:37.124Z,45.97
2022-11-29T21:59:09.648Z,43.60
2022-11-29T22:01:37.104Z,43.00
2022-11-29T22:04:05.790Z,43.33
2022-11-29T22:06:37.274Z,43.27
2022-11-29T22:09:07.768Z,42.40
2022-11-29T22:11:38.998Z,42.03
2022-11-29T22:14:15.216Z,43.77
2022-11-29T22:16:50.246Z,43.53
2022-11-29T22:19:30.892Z,44.87
2022-11-29T22:22:02.576Z,42.93
2022-11-29T22:24:36.253Z,45.17
2022-11-29T22:27:06.609Z,43.00
2022-11-29T22:29:36.620Z,43.83
2022-11-29T22:32:08.790Z,45.87
2022-11-29T22:34:41.126Z,46.77
2022-11-29T22:37:10.351Z,44.87
2022-11-29T22:39:43.909Z,48.00
2022-11-29T22:42:11.461Z,44.03
2022-11-29T22:44:41.142Z,43.20
2022-11-29T22:47:08.734Z,45.43
2022-11-29T22:49:37.165Z,44.97
2022-11-29T22:52:06.346Z,46.17
2022-11-29T22:54:36.666Z,46.63
2022-11-29T22:57:06.365Z,45.80
2022-11-29T22:59:35.998Z,45.53
2022-11-29T23:02:06.742Z,46.30
2022-11-29T23:07:18.059Z,46.87
2022-11-29T23:09:53.172Z,46.50
2022-11-29T23:12:31.210Z,47.60
2022-11-29T23:15:02.051Z,48.70
2022-11-29T23:17:30.468Z,46.63
2022-11-29T23:20:02.248Z,46.03
2022-11-29T23:22:39.480Z,47.17
2022-11-29T23:25:07.458Z,47.90
2022-11-29T23:27:36.619Z,45.73
2022-11-29T23:30:06.552Z,47.73
2022-11-29T23:32:35.288Z,51.00
2022-11-29T23:35:04.122Z,49.27
2022-11-29T23:37:34.433Z,48.67
2022-11-29T23:40:02.981Z,50.87
2022-11-29T23:42:33.606Z,47.40
2022-11-29T23:45:03.127Z,48.47
2022-11-29T23:47:33.770Z,51.37
2022-11-29T23:50:04.552Z,47.37
2022-11-29T23:52:36.643Z,50.27
2022-11-29T23:55:04.760Z,49.47
2022-11-29T23:57:36.550Z,53.10
